createdAt,value
2019-03-11T00:01:56.385Z,47.10
2019-03-11T00:04:27.832Z,47.40
2019-03-11T00:07:01.280Z,47.30
2019-03-11T00:09:31.771Z,47.10
2019-03-11T00:12:02.125Z,47.10
2019-03-11T00:14:32.438Z,47.30
2019-03-11T00:17:02.880Z,47.50
2019-03-11T00:19:33.207Z,47.60
2019-03-11T00:22:03.550Z,47.20
2019-03-11T00:24:33.871Z,47.60
2019-03-11T00:27:04.214Z,47.60
2019-03-11T00:29:34.532Z,47.70
2019-03-11T00:32:04.899Z,47.70
2019-03-11T00:34:35.225Z,47.90
2019-03-11T00:37:07.204Z,48.00
2019-03-11T00:39:37.538Z,48.20
2019-03-11T00:42:07.890Z,48.50
2019-03-11T00:44:40.517Z,48.70
2019-03-11T00:47:10.882Z,49.00
2019-03-11T00:49:41.195Z,49.30
2019-03-11T00:52:11.550Z,49.50
2019-03-11T00:54:41.893Z,49.70
2019-03-11T00:57:12.251Z,50.00
2019-03-11T00:59:42.691Z,50.20
2019-03-11T01:02:13.038Z,50.40
2019-03-11T01:04:43.353Z,50.70
2019-03-11T01:07:13.729Z,51.00
2019-03-11T01:09:44.114Z,51.10
2019-03-11T01:12:14.437Z,51.10
2019-03-11T01:14:44.758Z,51.20
2019-03-11T01:17:15.114Z,51.40
2019-03-11T01:19:45.430Z,51.30
2019-03-11T01:22:15.811Z,51.50
2019-03-11T01:24:46.144Z,51.60
2019-03-11T01:27:16.512Z,51.60
2019-03-11T01:29:46.971Z,51.70
2019-03-11T01:32:18.449Z,51.70
2019-03-11T01:34:49.854Z,51.60
2019-03-11T01:37:20.188Z,51.70
2019-03-11T01:39:50.514Z,51.80
2019-03-11T01:42:20.970Z,51.60
2019-03-11T01:44:51.309Z,51.60
2019-03-11T01:47:21.647Z,51.50
2019-03-11T01:49:51.988Z,51.70
2019-03-11T01:52:22.331Z,51.90
2019-03-11T01:54:52.648Z,52.10
2019-03-11T01:57:22.994Z,52.00
2019-03-11T01:59:53.320Z,52.00
2019-03-11T02:02:23.670Z,52.10
2019-03-11T02:04:54.186Z,52.40
2019-03-11T02:07:24.561Z,52.40
2019-03-11T02:09:54.939Z,51.90
2019-03-11T02:12:25.872Z,52.10
2019-03-11T02:14:56.276Z,51.60
2019-03-11T02:17:26.643Z,51.20
2019-03-11T02:19:56.981Z,51.20
2019-03-11T02:22:27.362Z,51.20
2019-03-11T02:24:57.976Z,51.30
2019-03-11T02:27:28.361Z,51.60
2019-03-11T02:29:58.757Z,51.90
2019-03-11T02:32:29.122Z,52.20
2019-03-11T02:34:59.523Z,52.30
2019-03-11T02:37:30.511Z,52.60
2019-03-11T02:40:00.900Z,52.40
2019-03-11T02:42:31.546Z,52.60
2019-03-11T02:45:01.990Z,52.70
2019-03-11T02:47:32.385Z,52.60
2019-03-11T02:50:02.922Z,52.60
2019-03-11T02:52:33.397Z,53.00
2019-03-11T02:55:03.743Z,53.20
2019-03-11T02:57:34.085Z,53.30
2019-03-11T03:00:05.891Z,53.20
2019-03-11T03:02:50.892Z,53.20
2019-03-11T03:05:27.852Z,53.30
2019-03-11T03:07:58.184Z,53.60
2019-03-11T03:10:28.555Z,53.30
2019-03-11T03:12:59.935Z,53.40
2019-03-11T03:15:30.305Z,53.10
2019-03-11T03:18:00.599Z,53.10
2019-03-11T03:20:30.989Z,52.70
2019-03-11T03:23:01.301Z,52.90
2019-03-11T03:25:34.294Z,52.30
2019-03-11T03:28:03.809Z,52.50
2019-03-11T03:30:34.526Z,52.40
2019-03-11T03:33:04.862Z,52.20
2019-03-11T03:35:35.213Z,52.50
2019-03-11T03:38:05.565Z,52.40
2019-03-11T03:40:35.862Z,52.60
2019-03-11T03:43:06.476Z,52.90
2019-03-11T03:45:39.497Z,52.70
2019-03-11T03:48:09.810Z,52.90
2019-03-11T03:50:40.550Z,52.90
2019-03-11T03:53:10.870Z,53.00
2019-03-11T03:55:41.195Z,53.10
2019-03-11T03:58:11.553Z,53.50
2019-03-11T04:00:41.915Z,54.00
2019-03-11T04:03:12.251Z,53.30
2019-03-11T04:05:42.612Z,52.70
2019-03-11T04:08:12.916Z,52.30
2019-03-11T04:10:43.253Z,53.00
2019-03-11T04:13:13.565Z,53.40
2019-03-11T04:15:44.349Z,54.40
2019-03-11T04:18:14.712Z,55.00
2019-03-11T04:20:45.042Z,60.30
2019-03-11T04:23:15.349Z,61.60
2019-03-11T04:25:45.679Z,64.00
2019-03-11T04:28:15.998Z,65.70
2019-03-11T04:30:46.389Z,67.60
2019-03-11T04:33:16.738Z,70.00
2019-03-11T04:35:47.089Z,70.80
2019-03-11T04:38:17.383Z,72.10
2019-03-11T04:40:47.721Z,72.30
2019-03-11T04:43:18.043Z,75.00
2019-03-11T04:45:48.398Z,76.30
2019-03-11T04:48:18.731Z,76.00
2019-03-11T04:50:49.062Z,77.40
2019-03-11T04:53:19.382Z,78.00
2019-03-11T04:55:49.733Z,79.80
2019-03-11T04:58:20.120Z,79.50
2019-03-11T05:00:50.854Z,81.20
2019-03-11T05:03:22.402Z,80.60
2019-03-11T05:05:53.012Z,81.60
2019-03-11T05:08:23.425Z,82.10
2019-03-11T05:10:54.035Z,81.50
2019-03-11T05:13:24.430Z,81.60
2019-03-11T05:15:54.992Z,80.00
2019-03-11T05:18:25.500Z,81.50
2019-03-11T05:20:57.395Z,80.60
2019-03-11T05:23:27.764Z,80.60
2019-03-11T05:25:58.192Z,80.70
2019-03-11T05:28:28.572Z,81.90
2019-03-11T05:30:58.932Z,81.70
2019-03-11T05:33:29.334Z,80.50
2019-03-11T05:35:59.725Z,82.30
2019-03-11T05:38:30.243Z,83.20
2019-03-11T05:41:00.606Z,82.50
2019-03-11T05:43:31.544Z,81.40
2019-03-11T05:46:01.898Z,83.60
2019-03-11T05:48:32.257Z,82.00
2019-03-11T05:51:02.615Z,81.30
2019-03-11T05:53:32.930Z,81.20
2019-03-11T05:56:03.298Z,80.20
2019-03-11T05:58:33.629Z,78.80
2019-03-11T06:01:03.978Z,77.60
2019-03-11T06:03:34.296Z,75.00
2019-03-11T06:06:04.661Z,72.50
2019-03-11T06:08:34.985Z,69.20
2019-03-11T06:11:05.340Z,67.60
2019-03-11T06:13:36.377Z,65.20
2019-03-11T06:16:06.804Z,64.60
2019-03-11T06:18:44.627Z,64.10
2019-03-11T06:21:50.630Z,65.70
2019-03-11T06:24:21.102Z,66.60
2019-03-11T06:26:51.845Z,67.20
2019-03-11T06:29:30.044Z,68.80
2019-03-11T06:31:55.112Z,70.40
2019-03-11T06:34:25.444Z,70.80
2019-03-11T06:36:55.783Z,71.50
2019-03-11T06:39:26.122Z,71.50
2019-03-11T06:41:56.465Z,72.80
2019-03-11T06:44:26.805Z,73.70
2019-03-11T06:46:57.157Z,74.00
2019-03-11T06:49:27.495Z,74.40
2019-03-11T06:51:57.854Z,75.70
2019-03-11T06:54:28.182Z,75.50
2019-03-11T06:56:58.534Z,76.50
2019-03-11T06:59:28.959Z,76.60
2019-03-11T07:01:59.301Z,76.30
2019-03-11T07:04:29.621Z,76.20
2019-03-11T07:06:59.976Z,76.10
2019-03-11T07:09:30.358Z,75.80
2019-03-11T07:12:00.838Z,75.50
2019-03-11T07:14:31.126Z,75.00
2019-03-11T07:17:01.466Z,74.50
2019-03-11T07:19:31.807Z,73.80
2019-03-11T07:22:02.161Z,73.10
2019-03-11T07:24:32.697Z,72.70
2019-03-11T07:27:03.068Z,72.10
2019-03-11T07:29:33.614Z,71.40
2019-03-11T07:32:03.935Z,70.90
2019-03-11T07:34:35.366Z,70.40
2019-03-11T07:37:05.758Z,70.30
2019-03-11T07:39:36.071Z,70.20
2019-03-11T07:42:06.449Z,69.90
2019-03-11T07:44:36.822Z,69.20
2019-03-11T07:47:07.275Z,69.30
2019-03-11T07:49:37.644Z,68.40
2019-03-11T07:52:07.967Z,65.30
2019-03-11T07:54:38.314Z,62.20
2019-03-11T07:57:10.979Z,59.30
2019-03-11T07:59:40.589Z,60.10
2019-03-11T08:02:10.987Z,58.50
2019-03-11T08:04:41.380Z,57.00
2019-03-11T08:07:11.866Z,56.50
2019-03-11T08:09:42.192Z,56.00
2019-03-11T08:12:12.669Z,56.80
2019-03-11T08:14:43.088Z,56.90
2019-03-11T08:17:13.737Z,56.70
2019-03-11T08:19:44.250Z,57.60
2019-03-11T08:22:14.922Z,58.40
2019-03-11T08:24:45.394Z,59.30
2019-03-11T08:27:15.744Z,58.30
2019-03-11T08:29:46.209Z,58.40
2019-03-11T08:32:16.916Z,58.10
2019-03-11T08:34:47.276Z,57.70
2019-03-11T08:37:17.921Z,57.20
2019-03-11T08:39:48.604Z,57.50
2019-03-11T08:42:18.943Z,56.80
2019-03-11T08:44:49.515Z,56.10
2019-03-11T08:47:20.258Z,54.90
2019-03-11T08:49:52.102Z,55.90
2019-03-11T08:52:22.471Z,55.40
2019-03-11T08:54:52.886Z,56.10
2019-03-11T08:57:23.228Z,56.80
2019-03-11T08:59:53.670Z,57.50
2019-03-11T09:02:24.021Z,58.30
2019-03-11T09:04:54.347Z,60.90
2019-03-11T09:07:24.822Z,62.90
2019-03-11T09:09:55.142Z,65.20
2019-03-11T09:12:26.587Z,67.20
2019-03-11T09:14:56.901Z,70.10
2019-03-11T09:17:27.241Z,70.70
2019-03-11T09:19:57.624Z,70.20
2019-03-11T09:22:27.992Z,70.90
2019-03-11T09:24:58.306Z,72.30
2019-03-11T09:27:28.650Z,73.40
2019-03-11T09:30:00.041Z,74.50
2019-03-11T09:32:30.539Z,73.80
2019-03-11T09:35:00.914Z,73.30
2019-03-11T09:37:31.265Z,74.00
2019-03-11T09:40:01.588Z,74.20
2019-03-11T09:42:31.994Z,73.60
2019-03-11T09:45:02.313Z,72.90
2019-03-11T09:47:32.835Z,72.30
2019-03-11T09:50:03.239Z,72.40
2019-03-11T09:52:33.645Z,72.40
2019-03-11T09:55:04.069Z,72.10
2019-03-11T09:57:34.579Z,71.90
2019-03-11T10:00:06.773Z,72.20
2019-03-11T10:02:38.194Z,72.10
2019-03-11T10:05:08.939Z,71.60
2019-03-11T10:07:40.382Z,71.00
2019-03-11T10:10:12.375Z,69.70
2019-03-11T10:12:42.713Z,68.50
2019-03-11T10:15:14.902Z,67.60
2019-03-11T10:17:45.250Z,66.50
2019-03-11T10:20:16.107Z,66.20
2019-03-11T10:22:48.056Z,65.00
2019-03-11T10:25:18.459Z,65.70
2019-03-11T10:27:48.809Z,64.30
2019-03-11T10:30:20.312Z,63.90
2019-03-11T10:32:50.735Z,63.20
2019-03-11T10:35:31.937Z,62.30
2019-03-11T10:37:53.115Z,59.50
2019-03-11T10:40:23.538Z,58.60
2019-03-11T10:42:53.905Z,61.00
2019-03-11T10:45:31.067Z,61.60
2019-03-11T10:47:56.358Z,61.50
2019-03-11T10:50:26.623Z,58.60
2019-03-11T10:52:57.078Z,58.90
2019-03-11T10:55:27.587Z,58.80
2019-03-11T10:57:58.097Z,59.80
2019-03-11T11:00:28.605Z,59.70
2019-03-11T11:02:58.905Z,59.10
2019-03-11T11:05:29.337Z,58.90
2019-03-11T11:07:59.784Z,58.30
2019-03-11T11:10:30.131Z,57.40
2019-03-11T11:13:00.475Z,57.40
2019-03-11T11:15:31.507Z,56.90
2019-03-11T11:18:01.843Z,57.00
2019-03-11T11:20:32.231Z,56.80
2019-03-11T11:23:02.654Z,56.60
2019-03-11T11:25:32.963Z,56.70
2019-03-11T11:28:03.404Z,57.00
2019-03-11T11:30:33.935Z,56.70
2019-03-11T11:33:04.397Z,56.70
2019-03-11T11:35:34.717Z,56.30
2019-03-11T11:38:05.071Z,52.80
2019-03-11T11:40:35.415Z,51.40
2019-03-11T11:43:05.769Z,49.30
2019-03-11T11:45:36.098Z,49.00
2019-03-11T11:48:08.288Z,48.80
2019-03-11T11:50:38.468Z,48.40
2019-03-11T11:53:08.830Z,49.70
2019-03-11T11:55:40.146Z,50.20
2019-03-11T11:58:18.719Z,50.50
2019-03-11T12:00:49.904Z,51.20
2019-03-11T12:03:20.250Z,50.60
2019-03-11T12:05:50.597Z,48.90
2019-03-11T12:08:20.978Z,48.50
2019-03-11T12:10:51.358Z,47.80
2019-03-11T12:13:21.863Z,48.70
2019-03-11T12:15:52.267Z,45.70
2019-03-11T12:18:22.651Z,45.90
2019-03-11T12:20:53.070Z,45.60
2019-03-11T12:23:23.489Z,45.60
2019-03-11T12:25:54.814Z,46.70
2019-03-11T12:28:25.273Z,46.80
2019-03-11T12:30:56.070Z,47.60
2019-03-11T12:33:26.839Z,48.70
2019-03-11T12:35:57.475Z,47.80
2019-03-11T12:38:28.907Z,46.90
2019-03-11T12:40:59.980Z,47.10
2019-03-11T12:43:30.760Z,49.00
2019-03-11T12:46:02.150Z,51.00
2019-03-11T12:48:48.470Z,49.50
2019-03-11T12:51:19.976Z,49.70
2019-03-11T12:53:50.439Z,47.80
2019-03-11T12:56:20.866Z,49.70
2019-03-11T12:58:51.240Z,48.70
2019-03-11T13:01:21.663Z,47.00
2019-03-11T13:03:52.010Z,45.20
2019-03-11T13:06:22.386Z,44.00
2019-03-11T13:08:52.834Z,43.70
2019-03-11T13:11:23.302Z,43.70
2019-03-11T13:13:53.688Z,41.60
2019-03-11T13:16:24.049Z,41.50
2019-03-11T13:18:56.893Z,38.70
2019-03-11T13:21:29.786Z,37.90
2019-03-11T13:24:00.109Z,37.90
2019-03-11T13:26:30.898Z,38.20
2019-03-11T13:29:01.206Z,38.70
2019-03-11T13:31:31.557Z,37.90
2019-03-11T13:34:01.896Z,37.10
2019-03-11T13:36:32.345Z,38.10
2019-03-11T13:39:03.417Z,37.20
2019-03-11T13:41:35.409Z,37.10
2019-03-11T13:44:05.729Z,37.10
2019-03-11T13:46:36.165Z,39.20
2019-03-11T13:49:06.484Z,39.30
2019-03-11T13:51:36.939Z,41.10
2019-03-11T13:54:07.356Z,41.80
2019-03-11T13:56:37.691Z,41.40
2019-03-11T13:59:08.042Z,41.00
2019-03-11T14:01:38.419Z,40.20
2019-03-11T14:04:08.862Z,39.20
2019-03-11T14:06:39.315Z,38.70
2019-03-11T14:09:10.278Z,38.20
2019-03-11T14:11:42.284Z,38.50
2019-03-11T14:14:12.953Z,38.40
2019-03-11T14:16:43.291Z,38.50
2019-03-11T14:19:13.648Z,39.10
2019-03-11T14:21:44.133Z,38.40
2019-03-11T14:24:14.768Z,39.00
2019-03-11T14:26:45.083Z,39.00
2019-03-11T14:29:15.591Z,39.10
2019-03-11T14:31:45.896Z,39.00
2019-03-11T14:34:16.376Z,38.90
2019-03-11T14:36:46.726Z,39.20
2019-03-11T14:39:17.198Z,39.00
2019-03-11T14:41:47.591Z,39.50
2019-03-11T14:44:18.080Z,39.70
2019-03-11T14:46:48.517Z,40.60
2019-03-11T14:49:19.014Z,41.60
2019-03-11T14:51:49.592Z,42.00
2019-03-11T14:54:19.992Z,42.30
2019-03-11T14:56:50.453Z,45.30
2019-03-11T14:59:21.996Z,49.00
2019-03-11T15:01:52.281Z,50.90
2019-03-11T15:04:23.699Z,52.20
2019-03-11T15:06:54.077Z,52.70
2019-03-11T15:09:24.501Z,52.00
2019-03-11T15:11:54.835Z,51.50
2019-03-11T15:14:25.196Z,50.50
2019-03-11T15:16:55.536Z,49.60
2019-03-11T15:19:25.902Z,49.60
2019-03-11T15:21:56.326Z,48.60
2019-03-11T15:24:26.712Z,48.20
2019-03-11T15:26:57.007Z,48.00
2019-03-11T15:29:27.346Z,47.10
2019-03-11T15:31:57.913Z,47.80
2019-03-11T15:34:28.302Z,47.80
2019-03-11T15:36:58.641Z,47.60
2019-03-11T15:39:28.971Z,48.10
2019-03-11T15:41:59.308Z,48.40
2019-03-11T15:44:29.652Z,48.80
2019-03-11T15:46:59.969Z,49.00
2019-03-11T15:49:30.331Z,49.20
2019-03-11T15:52:00.706Z,49.00
2019-03-11T15:54:31.129Z,47.60
2019-03-11T15:57:01.439Z,47.50
2019-03-11T15:59:31.791Z,47.50
2019-03-11T16:02:02.183Z,47.30
2019-03-11T16:04:32.552Z,46.90
2019-03-11T16:07:02.886Z,46.60
2019-03-11T16:09:33.239Z,47.10
2019-03-11T16:12:03.641Z,47.60
2019-03-11T16:14:33.920Z,48.30
2019-03-11T16:17:04.325Z,45.70
2019-03-11T16:19:34.693Z,43.40
2019-03-11T16:22:05.200Z,41.00
2019-03-11T16:24:35.679Z,38.50
2019-03-11T16:27:06.007Z,36.90
2019-03-11T16:29:36.353Z,35.60
2019-03-11T16:32:06.688Z,35.90
2019-03-11T16:34:37.035Z,36.10
2019-03-11T16:37:07.366Z,35.60
2019-03-11T16:39:39.317Z,35.20
2019-03-11T16:42:10.226Z,34.80
2019-03-11T16:44:40.586Z,34.00
2019-03-11T16:47:10.909Z,33.40
2019-03-11T16:49:41.249Z,33.70
2019-03-11T16:52:11.562Z,33.00
2019-03-11T16:54:41.916Z,33.40
2019-03-11T16:57:12.247Z,33.60
2019-03-11T16:59:42.637Z,33.40
2019-03-11T17:02:13.424Z,33.70
2019-03-11T17:04:43.770Z,34.00
2019-03-11T17:07:14.112Z,34.50
2019-03-11T17:09:44.542Z,35.10
2019-03-11T17:12:14.866Z,36.00
2019-03-11T17:14:45.320Z,37.00
2019-03-11T17:17:15.636Z,37.90
2019-03-11T17:19:45.998Z,38.70
2019-03-11T17:22:16.850Z,39.10
2019-03-11T17:24:48.499Z,39.50
2019-03-11T17:27:18.839Z,40.20
2019-03-11T17:29:49.319Z,41.50
2019-03-11T17:32:19.722Z,42.20
2019-03-11T17:34:50.221Z,42.60
2019-03-11T17:37:20.620Z,43.20
2019-03-11T17:39:51.761Z,43.40
2019-03-11T17:42:22.129Z,43.80
2019-03-11T17:44:52.702Z,44.40
2019-03-11T17:47:23.095Z,44.30
2019-03-11T17:49:53.531Z,44.50
2019-03-11T17:52:23.886Z,45.20
2019-03-11T17:54:54.418Z,46.20
2019-03-11T17:57:24.839Z,46.60
2019-03-11T17:59:55.191Z,46.80
2019-03-11T18:02:25.512Z,47.00
2019-03-11T18:04:55.863Z,48.10
2019-03-11T18:07:26.200Z,47.50
2019-03-11T18:09:56.625Z,48.00
2019-03-11T18:12:26.947Z,48.90
2019-03-11T18:14:57.399Z,48.90
2019-03-11T18:17:27.717Z,48.90
2019-03-11T18:19:58.128Z,49.50
2019-03-11T18:22:28.498Z,49.80
2019-03-11T18:24:58.840Z,50.10
2019-03-11T18:27:29.993Z,50.40
2019-03-11T18:30:00.763Z,50.20
2019-03-11T18:32:31.554Z,50.00
2019-03-11T18:35:03.347Z,50.10
2019-03-11T18:37:34.140Z,50.00
2019-03-11T18:40:05.068Z,50.00
2019-03-11T18:42:35.553Z,49.80
2019-03-11T18:45:06.742Z,50.00
2019-03-11T18:47:37.423Z,49.90
2019-03-11T18:50:09.755Z,49.90
2019-03-11T18:52:40.321Z,50.00
2019-03-11T18:55:11.181Z,50.50
2019-03-11T18:57:41.886Z,50.60
2019-03-11T19:00:14.111Z,51.80
2019-03-11T19:02:44.829Z,51.10
2019-03-11T19:05:16.026Z,51.30
2019-03-11T19:07:47.004Z,51.80
2019-03-11T19:10:17.552Z,52.00
2019-03-11T19:12:48.186Z,52.20
2019-03-11T19:15:18.825Z,52.10
2019-03-11T19:17:49.383Z,52.20
2019-03-11T19:20:20.231Z,52.30
2019-03-11T19:22:51.104Z,52.10
2019-03-11T19:25:22.078Z,52.20
2019-03-11T19:27:53.701Z,52.20
2019-03-11T19:30:24.209Z,52.50
2019-03-11T19:32:54.617Z,52.80
2019-03-11T19:35:26.007Z,52.60
2019-03-11T19:37:57.238Z,52.70
2019-03-11T19:40:27.717Z,52.60
2019-03-11T19:42:58.394Z,52.70
2019-03-11T19:45:28.776Z,52.60
2019-03-11T19:47:59.162Z,52.50
2019-03-11T19:50:29.486Z,52.50
2019-03-11T19:53:00.008Z,52.80
2019-03-11T19:55:30.380Z,53.10
2019-03-11T19:58:13.138Z,52.90
2019-03-11T20:00:43.489Z,53.20
2019-03-11T20:03:23.754Z,53.30
2019-03-11T20:05:45.926Z,53.60
2019-03-11T20:08:16.265Z,53.70
2019-03-11T20:10:46.820Z,53.70
2019-03-11T20:13:17.579Z,54.10
2019-03-11T20:15:48.116Z,54.30
2019-03-11T20:18:19.784Z,54.40
2019-03-11T20:20:51.055Z,54.30
2019-03-11T20:23:21.558Z,54.70
2019-03-11T20:25:52.650Z,54.40
2019-03-11T20:28:22.979Z,54.30
2019-03-11T20:30:53.862Z,54.40
2019-03-11T20:33:24.397Z,54.50
2019-03-11T20:35:54.734Z,54.60
2019-03-11T20:38:25.224Z,54.70
2019-03-11T20:40:55.976Z,54.80
2019-03-11T20:43:26.348Z,54.70
2019-03-11T20:45:56.947Z,54.90
2019-03-11T20:48:27.632Z,55.00
2019-03-11T20:50:58.368Z,55.10
2019-03-11T20:53:29.008Z,55.10
2019-03-11T20:55:59.551Z,55.10
2019-03-11T20:58:29.926Z,56.10
2019-03-11T21:01:00.967Z,56.00
2019-03-11T21:03:31.376Z,56.10
2019-03-11T21:06:03.507Z,56.50
2019-03-11T21:08:36.248Z,56.40
2019-03-11T21:11:06.616Z,56.70
2019-03-11T21:13:36.955Z,56.70
2019-03-11T21:16:07.288Z,56.80
2019-03-11T21:18:37.694Z,57.20
2019-03-11T21:21:08.249Z,57.00
2019-03-11T21:23:38.679Z,57.00
2019-03-11T21:26:09.053Z,57.10
2019-03-11T21:28:39.578Z,57.00
2019-03-11T21:31:12.205Z,57.10
2019-03-11T21:33:42.527Z,56.70
2019-03-11T21:36:12.982Z,57.20
2019-03-11T21:38:48.230Z,57.30
2019-03-11T21:41:20.758Z,57.10
2019-03-11T21:43:52.192Z,57.20
2019-03-11T21:46:22.455Z,57.30
2019-03-11T21:49:16.163Z,57.30
2019-03-11T21:51:46.599Z,57.50
2019-03-11T21:54:16.880Z,57.90
2019-03-11T21:56:47.259Z,57.90
2019-03-11T21:59:17.702Z,57.90
2019-03-11T22:01:48.140Z,59.30
2019-03-11T22:04:21.690Z,59.70
2019-03-11T22:06:55.518Z,60.30
2019-03-11T22:09:28.300Z,61.50
2019-03-11T22:11:58.656Z,62.50
2019-03-11T22:14:28.992Z,62.60
2019-03-11T22:16:59.329Z,63.10
2019-03-11T22:19:29.632Z,63.30
2019-03-11T22:21:59.978Z,64.30
2019-03-11T22:24:30.310Z,65.60
2019-03-11T22:27:00.778Z,65.00
2019-03-11T22:29:31.080Z,65.30
2019-03-11T22:32:01.425Z,66.60
2019-03-11T22:34:31.732Z,65.60
2019-03-11T22:37:02.071Z,66.00
2019-03-11T22:39:32.374Z,66.00
2019-03-11T22:42:02.730Z,66.10
2019-03-11T22:44:33.073Z,66.40
2019-03-11T22:47:03.417Z,66.20
2019-03-11T22:49:33.726Z,66.10
2019-03-11T22:52:04.062Z,66.40
2019-03-11T22:54:34.370Z,66.80
2019-03-11T22:57:06.786Z,66.60
2019-03-11T22:59:37.119Z,66.20
2019-03-11T23:02:11.443Z,66.30
2019-03-11T23:04:40.373Z,65.90
2019-03-11T23:07:10.944Z,65.50
2019-03-11T23:09:41.357Z,65.30
2019-03-11T23:12:11.783Z,65.40
2019-03-11T23:14:42.102Z,65.00
2019-03-11T23:17:12.548Z,65.20
2019-03-11T23:19:42.852Z,65.00
2019-03-11T23:22:13.366Z,64.80
2019-03-11T23:24:43.775Z,65.00
2019-03-11T23:27:15.874Z,64.80
2019-03-11T23:29:47.739Z,64.90
2019-03-11T23:32:18.111Z,65.30
2019-03-11T23:34:48.504Z,64.80
2019-03-11T23:37:18.853Z,64.50
2019-03-11T23:39:49.394Z,64.30
2019-03-11T23:42:19.746Z,63.90
2019-03-11T23:44:50.426Z,63.60
2019-03-11T23:47:23.260Z,63.40
2019-03-11T23:49:55.727Z,63.30
2019-03-11T23:52:28.370Z,63.00
2019-03-11T23:55:03.679Z,62.70
2019-03-11T23:57:35.900Z,62.40
